Waynesville, Ohio
Current Conditions -  °F | °C
As of 2:53 PM on Friday 21 Nov 2014 (Local Time) from KMGY Reporting Station
Clear Clear  
Wind Chill: -5°   Ceiling: Unl
Heat Index: -1°   Visibility: 10mi
Dew Point: -12°   Wind: 7mph
Humidity: 43%   Direction: 160°SSE
Pressure: 30.45"   Gusts: NA
Location:  39.53°N, 84.09°W
Report Text: KMGY 211953Z AUTO 16006KT 10SM CLR M01/M12 A3045 RMK AO2 SLP325 T10111122
Loading
Personal Weather Stations






























Interactive Weather Map New forecast layout! Learn more

10-Day Weather Forecast

Advertisements
Track Severe Weather on mobile